Time;durP1;ratioP1;P1;durP2;ratioP2;P2;SDS_P1;SDS_P2;PMS_P1;PMS_P2;Temp;Humidity;BMP_temperature;BMP_pressure;BME280_temperature;BME280_humidity;BME280_pressure;Samples;Min_cycle;Max_cycle;Signal;HPM_P1;HPM_P2
2022/10/30 00:01:11;;;;;;;107.77;102.97;;;14.70;99.90;;;;;;4988708;28;20485;-86
2022/10/30 00:03:38;;;;;;;109.73;104.13;;;14.60;99.90;;;;;;4988365;28;20455;-85
2022/10/30 00:06:06;;;;;;;118.80;113.87;;;14.60;99.90;;;;;;4988433;28;20452;-85
2022/10/30 00:08:33;;;;;;;118.93;113.10;;;14.60;99.90;;;;;;4988240;28;21032;-86
2022/10/30 00:11:06;;;;;;;143.70;137.97;;;14.60;99.90;;;;;;4989035;28;20479;-85
2022/10/30 00:13:32;;;;;;;137.73;131.57;;;14.50;99.90;;;;;;4987882;28;20502;-86
2022/10/30 00:16:03;;;;;;;139.33;133.20;;;14.50;99.90;;;;;;4988172;28;20452;-86
2022/10/30 00:18:30;;;;;;;139.93;132.87;;;14.50;99.90;;;;;;4988646;28;20463;-85
2022/10/30 00:20:57;;;;;;;124.33;118.27;;;14.60;99.90;;;;;;4988398;28;20481;-85
2022/10/30 00:23:23;;;;;;;107.37;102.67;;;14.60;99.90;;;;;;4988343;28;20918;-86
2022/10/30 00:25:50;;;;;;;101.60;97.10;;;14.70;99.90;;;;;;4987673;28;20477;-86
2022/10/30 00:28:17;;;;;;;108.60;103.90;;;14.60;99.90;;;;;;4988278;28;20447;-86
2022/10/30 00:30:43;;;;;;;99.30;94.50;;;14.60;99.90;;;;;;4987456;28;20454;-86
2022/10/30 00:33:11;;;;;;;95.57;90.77;;;14.70;99.90;;;;;;4987612;28;20463;-86
2022/10/30 00:35:38;;;;;;;102.17;97.63;;;14.70;99.90;;;;;;4987842;28;20875;-86
2022/10/30 00:38:05;;;;;;;111.83;106.83;;;14.60;99.90;;;;;;4987757;28;20443;-85
2022/10/30 00:40:32;;;;;;;114.80;109.80;;;14.60;99.90;;;;;;4987538;28;20462;-85
2022/10/30 00:42:59;;;;;;;110.97;106.00;;;14.60;99.90;;;;;;4987724;28;20475;-86
2022/10/30 00:45:26;;;;;;;111.73;105.87;;;14.60;99.90;;;;;;4986543;28;20819;-86
2022/10/30 00:47:55;;;;;;;121.10;116.00;;;14.60;99.90;;;;;;4988258;28;20466;-86
2022/10/30 00:50:27;;;;;;;117.70;112.97;;;14.60;99.90;;;;;;4987750;28;20487;-87
2022/10/30 00:53:00;;;;;;;120.27;115.00;;;14.50;99.90;;;;;;4987102;28;20486;-85
2022/10/30 00:55:31;;;;;;;139.73;134.13;;;14.50;99.90;;;;;;4988998;28;20462;-86
2022/10/30 00:58:01;;;;;;;153.13;147.33;;;14.40;99.90;;;;;;4987860;28;20459;-86
2022/10/30 01:00:29;;;;;;;148.70;142.57;;;14.30;99.90;;;;;;4995513;28;20450;-85
2022/10/30 01:02:57;;;;;;;150.17;144.40;;;14.30;99.90;;;;;;4996539;28;20469;-85
2022/10/30 01:05:28;;;;;;;168.13;161.37;;;14.30;99.90;;;;;;4996616;28;20453;-85
2022/10/30 01:07:55;;;;;;;162.50;155.60;;;14.30;99.90;;;;;;4997015;28;20535;-85
2022/10/30 01:10:22;;;;;;;161.70;155.10;;;14.20;99.90;;;;;;4990087;28;20447;-84
2022/10/30 01:12:51;;;;;;;171.43;164.73;;;14.30;99.90;;;;;;4987458;28;20495;-85
2022/10/30 01:15:22;;;;;;;158.20;151.27;;;14.10;99.90;;;;;;4987020;28;20479;-85
2022/10/30 01:18:12;;;;;;;188.73;180.60;;;14.00;99.90;;;;;;4987597;28;20470;-86
2022/10/30 01:21:07;;;;;;;209.20;200.27;;;14.00;99.90;;;;;;4987189;28;20941;-86
2022/10/30 01:23:42;;;;;;;218.93;210.73;;;14.00;99.90;;;;;;4985517;28;20467;-86
2022/10/30 01:26:17;;;;;;;228.60;219.97;;;13.90;99.90;;;;;;4987244;28;20457;-86
2022/10/30 01:28:59;;;;;;;260.07;250.27;;;13.80;99.90;;;;;;4987368;28;20442;-86
2022/10/30 01:31:40;;;;;;;297.33;285.87;;;13.80;99.90;;;;;;4986606;28;20486;-87
2022/10/30 01:34:17;;;;;;;337.07;324.17;;;13.60;99.90;;;;;;4987020;28;20470;-86
2022/10/30 01:36:48;;;;;;;351.53;337.93;;;13.60;99.90;;;;;;4989902;28;20838;-86
2022/10/30 01:39:19;;;;;;;346.73;333.57;;;13.60;99.90;;;;;;4991128;28;20451;-85
2022/10/30 01:41:45;;;;;;;360.30;346.00;;;13.50;99.90;;;;;;4991049;28;20691;-86
2022/10/30 01:44:17;;;;;;;370.37;356.07;;;13.50;99.90;;;;;;4991254;28;20945;-86
2022/10/30 01:46:56;;;;;;;366.80;352.80;;;13.40;99.90;;;;;;4991546;28;20457;-85
2022/10/30 01:49:36;;;;;;;382.80;367.50;;;13.50;99.90;;;;;;4990439;28;20458;-86
2022/10/30 01:52:15;;;;;;;413.80;396.60;;;13.40;99.90;;;;;;4990436;28;20494;-85
2022/10/30 01:54:51;;;;;;;438.47;420.60;;;13.30;99.90;;;;;;4990796;28;20478;-85
2022/10/30 01:57:29;;;;;;;469.87;450.27;;;13.20;99.90;;;;;;4990345;28;20457;-86
2022/10/30 01:59:59;;;;;;;502.50;480.00;;;13.10;99.90;;;;;;4990539;28;20450;-85
2022/10/30 02:02:26;;;;;;;557.63;532.33;;;13.00;99.90;;;;;;4990566;28;20486;-85
2022/10/30 02:04:53;;;;;;;595.00;565.80;;;12.90;99.90;;;;;;4990304;28;20459;-85
2022/10/30 02:07:22;;;;;;;599.23;570.63;;;12.80;99.90;;;;;;4990068;28;20956;-86
2022/10/30 02:09:51;;;;;;;592.40;563.00;;;12.70;99.90;;;;;;4990141;28;20473;-86
2022/10/30 02:12:19;;;;;;;637.90;605.77;;;12.60;99.90;;;;;;4990307;28;20478;-85
2022/10/30 02:14:48;;;;;;;651.87;617.97;;;12.60;99.90;;;;;;4989664;28;20498;-86
2022/10/30 02:17:15;;;;;;;659.67;623.77;;;12.50;99.90;;;;;;4989522;28;20458;-85
2022/10/30 02:19:42;;;;;;;742.90;698.63;;;12.40;99.90;;;;;;4989910;28;20466;-86
2022/10/30 02:22:11;;;;;;;742.07;695.90;;;12.40;99.90;;;;;;4990127;28;20477;-86
2022/10/30 02:24:38;;;;;;;745.63;699.73;;;12.40;99.90;;;;;;4989302;28;20466;-86
2022/10/30 02:27:05;;;;;;;740.10;695.33;;;12.40;99.90;;;;;;4989621;28;20466;-86
2022/10/30 02:29:32;;;;;;;715.30;672.40;;;12.40;99.90;;;;;;4990111;28;20454;-86
2022/10/30 02:31:58;;;;;;;734.43;688.67;;;12.40;99.90;;;;;;4989619;28;20988;-85
2022/10/30 02:34:25;;;;;;;722.77;679.40;;;12.40;99.90;;;;;;4989792;28;20487;-85
2022/10/30 02:36:52;;;;;;;714.03;671.80;;;12.40;99.90;;;;;;4988773;28;20454;-86
2022/10/30 02:39:20;;;;;;;727.53;685.03;;;12.30;99.90;;;;;;4990076;28;20462;-86
2022/10/30 02:41:47;;;;;;;738.43;693.87;;;12.20;99.90;;;;;;4988826;28;20575;-86
2022/10/30 02:44:13;;;;;;;737.33;693.13;;;12.20;99.90;;;;;;4989573;28;20455;-86
2022/10/30 02:46:40;;;;;;;753.73;707.83;;;12.20;99.90;;;;;;4989989;28;20481;-86
2022/10/30 02:49:07;;;;;;;764.87;716.57;;;12.20;99.90;;;;;;4989916;28;20461;-86
2022/10/30 02:51:34;;;;;;;746.30;700.40;;;12.10;99.90;;;;;;4988774;28;20470;-86
2022/10/30 02:54:01;;;;;;;777.77;729.23;;;12.10;99.90;;;;;;4989093;28;20475;-85
2022/10/30 02:56:29;;;;;;;787.17;737.70;;;11.90;99.90;;;;;;4989428;28;20459;-86
2022/10/30 02:58:56;;;;;;;807.03;756.60;;;11.80;99.90;;;;;;4989116;28;20978;-86
2022/10/30 03:01:23;;;;;;;819.10;768.50;;;11.80;99.90;;;;;;4988646;28;20478;-85
2022/10/30 03:03:50;;;;;;;832.40;779.63;;;11.70;99.90;;;;;;4988668;28;20463;-85
2022/10/30 03:06:17;;;;;;;827.43;773.77;;;11.70;99.90;;;;;;4989400;28;20450;-85
2022/10/30 03:08:44;;;;;;;834.60;779.93;;;11.70;99.90;;;;;;4989191;28;20840;-85
2022/10/30 03:11:13;;;;;;;839.07;783.43;;;11.60;99.90;;;;;;4988684;28;20479;-86
2022/10/30 03:13:43;;;;;;;841.83;786.40;;;11.60;99.90;;;;;;4988011;28;20526;-86
2022/10/30 03:16:12;;;;;;;843.10;785.70;;;11.50;99.90;;;;;;4988075;28;20953;-86
2022/10/30 03:18:39;;;;;;;846.60;788.10;;;11.50;99.90;;;;;;4988485;28;20451;-86
2022/10/30 03:21:08;;;;;;;830.20;774.20;;;11.50;99.90;;;;;;4988808;28;20466;-86
2022/10/30 03:23:35;;;;;;;849.40;791.70;;;11.40;99.90;;;;;;4987882;28;20539;-85
2022/10/30 03:26:02;;;;;;;843.70;784.73;;;11.30;99.90;;;;;;4988637;28;20462;-86
2022/10/30 03:28:34;;;;;;;832.07;773.40;;;11.30;99.90;;;;;;4988361;28;20455;-86
2022/10/30 03:31:04;;;;;;;841.67;779.17;;;11.30;99.90;;;;;;4988448;28;20502;-86
2022/10/30 03:33:31;;;;;;;837.97;775.40;;;11.40;99.90;;;;;;4987971;28;20835;-85
2022/10/30 03:35:58;;;;;;;829.43;767.67;;;11.40;99.90;;;;;;4988152;28;20487;-86
2022/10/30 03:38:25;;;;;;;838.27;778.93;;;11.30;99.90;;;;;;4987755;28;20455;-86
2022/10/30 03:40:52;;;;;;;832.63;773.10;;;11.30;99.90;;;;;;4987630;28;20462;-86
2022/10/30 03:43:19;;;;;;;835.40;776.60;;;11.20;99.90;;;;;;4987302;28;20832;-86
2022/10/30 03:45:47;;;;;;;832.53;773.83;;;11.20;99.90;;;;;;4988452;28;20462;-85
2022/10/30 03:48:16;;;;;;;829.43;772.13;;;11.20;99.90;;;;;;4988229;28;20961;-86
2022/10/30 03:50:43;;;;;;;830.20;773.03;;;11.10;99.90;;;;;;4987369;28;20459;-86
2022/10/30 03:53:11;;;;;;;826.37;770.20;;;11.10;99.90;;;;;;4987572;28;20455;-86
2022/10/30 03:55:37;;;;;;;834.90;778.70;;;11.00;99.90;;;;;;4987727;28;20482;-86
2022/10/30 03:58:04;;;;;;;831.73;775.17;;;11.00;99.90;;;;;;4987611;28;20450;-85
2022/10/30 04:00:32;;;;;;;824.03;768.23;;;10.90;99.90;;;;;;4986910;28;20880;-85
2022/10/30 04:02:58;;;;;;;814.80;759.50;;;10.80;99.90;;;;;;4986409;28;20474;-85
2022/10/30 04:05:28;;;;;;;821.30;765.30;;;10.80;99.90;;;;;;4987536;28;20486;-86
2022/10/30 04:07:58;;;;;;;841.37;782.70;;;10.70;99.90;;;;;;4987223;28;20451;-86
2022/10/30 04:10:25;;;;;;;831.90;765.63;;;10.60;99.90;;;;;;4987190;28;20455;-85
2022/10/30 04:12:53;;;;;;;822.37;754.50;;;10.60;99.90;;;;;;4988148;28;20486;-86
2022/10/30 04:15:20;;;;;;;817.20;749.60;;;10.70;99.90;;;;;;4987990;28;20489;-85
2022/10/30 04:17:50;;;;;;;831.30;763.17;;;10.70;99.90;;;;;;4987187;28;20454;-85
2022/10/30 04:20:17;;;;;;;824.43;758.23;;;10.70;99.90;;;;;;4986641;28;20454;-86
2022/10/30 04:22:46;;;;;;;828.97;762.97;;;10.70;99.90;;;;;;4987877;28;20798;-86
2022/10/30 04:25:13;;;;;;;838.17;771.10;;;10.70;99.90;;;;;;4987329;28;20489;-86
2022/10/30 04:27:40;;;;;;;836.43;769.33;;;10.70;99.90;;;;;;4986907;28;20459;-86
2022/10/30 04:30:09;;;;;;;836.07;769.87;;;10.60;99.90;;;;;;4986586;28;20455;-85
2022/10/30 04:32:36;;;;;;;842.67;775.60;;;10.60;99.90;;;;;;4986454;28;20475;-85
2022/10/30 04:35:03;;;;;;;832.43;765.70;;;10.60;99.90;;;;;;4987234;28;20748;-83
2022/10/30 04:37:30;;;;;;;837.07;769.67;;;10.70;99.90;;;;;;4986585;28;20470;-83
2022/10/30 04:39:58;;;;;;;837.83;771.43;;;10.60;99.90;;;;;;4987222;28;20961;-84
2022/10/30 04:42:25;;;;;;;832.67;766.77;;;10.60;99.90;;;;;;4986379;28;20840;-83
2022/10/30 04:44:51;;;;;;;834.87;768.70;;;10.60;99.90;;;;;;4985680;28;20471;-83
2022/10/30 04:47:18;;;;;;;842.07;776.13;;;10.60;99.90;;;;;;4986937;28;20846;-82
2022/10/30 04:49:44;;;;;;;844.63;779.83;;;10.60;99.90;;;;;;4985957;28;20534;-83
2022/10/30 04:52:11;;;;;;;842.87;778.30;;;10.50;99.90;;;;;;4985636;28;20506;-84
2022/10/30 04:54:38;;;;;;;844.47;778.93;;;10.50;99.90;;;;;;4986518;28;20461;-83
2022/10/30 04:57:06;;;;;;;848.20;781.97;;;10.50;99.90;;;;;;4985859;28;20459;-84
2022/10/30 04:59:33;;;;;;;847.50;781.83;;;10.60;99.90;;;;;;4986198;28;20561;-83
2022/10/30 05:01:59;;;;;;;833.73;765.80;;;10.50;99.90;;;;;;4985811;28;20494;-84
2022/10/30 05:04:26;;;;;;;842.80;775.60;;;10.50;99.90;;;;;;4986663;28;20536;-84
2022/10/30 05:06:53;;;;;;;836.27;769.77;;;10.40;99.90;;;;;;4986560;28;20467;-84
2022/10/30 05:09:19;;;;;;;842.37;774.97;;;10.40;99.90;;;;;;4986134;28;20451;-84
2022/10/30 05:11:46;;;;;;;846.70;779.03;;;10.40;99.90;;;;;;4985218;28;20853;-84
2022/10/30 05:14:14;;;;;;;830.53;764.43;;;10.30;99.90;;;;;;4985521;28;20466;-84
2022/10/30 05:16:41;;;;;;;834.77;768.53;;;10.40;99.90;;;;;;4985709;28;20447;-84
2022/10/30 05:19:08;;;;;;;832.47;768.77;;;10.40;99.90;;;;;;4985856;28;20462;-84
2022/10/30 05:21:34;;;;;;;847.80;783.60;;;10.40;99.90;;;;;;4985412;28;20471;-84
2022/10/30 05:24:01;;;;;;;851.83;785.90;;;10.30;99.90;;;;;;4985706;28;20498;-84
2022/10/30 05:26:28;;;;;;;843.73;779.40;;;10.40;99.90;;;;;;4985208;28;20474;-83
2022/10/30 05:28:54;;;;;;;846.73;783.07;;;10.40;99.90;;;;;;4985305;28;20462;-84
2022/10/30 05:31:22;;;;;;;834.73;770.83;;;10.30;99.90;;;;;;4984780;28;20478;-84
2022/10/30 05:33:49;;;;;;;834.57;769.10;;;10.40;99.90;;;;;;4985725;28;20466;-84
2022/10/30 05:36:16;;;;;;;813.70;748.50;;;10.40;99.90;;;;;;4985450;28;20451;-84
2022/10/30 05:38:42;;;;;;;813.60;747.90;;;10.40;99.90;;;;;;4985232;28;20455;-83
2022/10/30 05:41:09;;;;;;;804.57;739.77;;;10.30;99.90;;;;;;4985096;28;20473;-83
2022/10/30 05:43:36;;;;;;;810.70;752.00;;;10.40;99.90;;;;;;4984709;28;20462;-84
2022/10/30 05:46:03;;;;;;;809.40;754.13;;;10.20;99.90;;;;;;4984639;28;20490;-83
2022/10/30 05:48:31;;;;;;;807.50;754.67;;;10.00;99.90;;;;;;4984629;28;20450;-84
2022/10/30 05:50:57;;;;;;;824.40;770.43;;;10.10;99.90;;;;;;4984527;28;21020;-84
2022/10/30 05:53:24;;;;;;;826.43;770.00;;;9.90;99.90;;;;;;4984888;28;20466;-85
2022/10/30 05:55:51;;;;;;;827.93;765.33;;;9.90;99.90;;;;;;4986442;28;20474;-83
2022/10/30 05:58:18;;;;;;;822.27;755.40;;;10.10;99.90;;;;;;4984643;28;20452;-84
2022/10/30 06:00:44;;;;;;;802.80;734.10;;;10.30;99.90;;;;;;4984543;28;20450;-85
2022/10/30 06:03:14;;;;;;;812.00;742.40;;;10.30;99.90;;;;;;4983964;28;20851;-84
2022/10/30 06:05:44;;;;;;;795.93;725.00;;;10.40;99.90;;;;;;4983859;28;20510;-84
2022/10/30 06:08:11;;;;;;;798.77;727.63;;;10.60;99.90;;;;;;4984424;28;20455;-84
2022/10/30 06:10:38;;;;;;;795.83;725.03;;;10.70;99.90;;;;;;4984278;28;20450;-84
2022/10/30 06:13:06;;;;;;;795.63;726.07;;;10.60;99.90;;;;;;4983206;28;20455;-84
2022/10/30 06:15:33;;;;;;;801.07;731.37;;;10.50;99.90;;;;;;4982196;28;20451;-85
2022/10/30 06:18:00;;;;;;;828.20;757.70;;;10.40;99.90;;;;;;4981061;28;20455;-84
2022/10/30 06:20:29;;;;;;;824.03;754.40;;;10.50;99.90;;;;;;4979319;28;20962;-84
2022/10/30 06:22:59;;;;;;;827.53;756.57;;;10.40;99.90;;;;;;4982291;28;20474;-85
2022/10/30 06:25:26;;;;;;;807.77;737.70;;;10.30;99.90;;;;;;4984209;28;20834;-84
2022/10/30 06:27:53;;;;;;;802.93;733.57;;;10.20;99.90;;;;;;4983766;28;20510;-84
2022/10/30 06:30:20;;;;;;;798.80;728.70;;;10.30;99.90;;;;;;4982013;28;20455;-85
2022/10/30 06:32:47;;;;;;;789.50;720.20;;;10.20;99.90;;;;;;4983815;28;20509;-85
2022/10/30 06:35:14;;;;;;;792.53;722.40;;;10.30;99.90;;;;;;4983332;28;20941;-85
2022/10/30 06:37:45;;;;;;;791.60;722.47;;;10.20;99.90;;;;;;4984521;28;20458;-85
2022/10/30 06:40:14;;;;;;;794.70;726.37;;;10.30;99.90;;;;;;4983857;28;20451;-83
2022/10/30 06:42:44;;;;;;;797.37;729.77;;;10.20;99.90;;;;;;4983866;28;20486;-85
2022/10/30 06:45:11;;;;;;;798.40;731.73;;;10.30;99.90;;;;;;4982643;28;20479;-85
2022/10/30 06:47:38;;;;;;;800.27;733.37;;;10.30;99.90;;;;;;4982538;28;20471;-85
2022/10/30 06:50:07;;;;;;;790.40;724.20;;;10.30;99.90;;;;;;4984369;28;20454;-84
2022/10/30 06:52:34;;;;;;;787.43;722.07;;;10.40;99.90;;;;;;4985300;28;20478;-85
2022/10/30 06:55:01;;;;;;;789.90;723.73;;;10.30;99.90;;;;;;4984987;28;20462;-85
2022/10/30 06:57:29;;;;;;;789.70;724.60;;;10.40;99.90;;;;;;4984566;28;20470;-84
2022/10/30 06:59:56;;;;;;;785.27;718.60;;;10.40;99.90;;;;;;4983011;28;20455;-84
2022/10/30 07:02:23;;;;;;;774.77;709.27;;;10.60;99.90;;;;;;4983292;28;20483;-85
2022/10/30 07:04:49;;;;;;;789.40;723.80;;;10.60;99.90;;;;;;4984982;28;20465;-84
2022/10/30 07:07:16;;;;;;;780.87;715.17;;;10.70;99.90;;;;;;4984253;28;20577;-84
2022/10/30 07:09:45;;;;;;;787.10;721.40;;;10.70;99.90;;;;;;4985081;28;20466;-84
2022/10/30 07:12:12;;;;;;;776.07;711.27;;;10.80;99.90;;;;;;4988011;28;20475;-84
2022/10/30 07:14:40;;;;;;;777.87;713.77;;;11.00;99.90;;;;;;4986061;28;20466;-84
2022/10/30 07:17:07;;;;;;;772.80;710.97;;;11.00;99.90;;;;;;4987179;28;20462;-84
2022/10/30 07:19:34;;;;;;;778.50;717.40;;;11.10;99.90;;;;;;4988503;28;20458;-82
2022/10/30 07:22:01;;;;;;;776.00;716.10;;;11.10;99.90;;;;;;4995598;28;20463;-83
2022/10/30 07:24:28;;;;;;;775.53;715.60;;;11.20;99.90;;;;;;4997048;28;20459;-82
2022/10/30 07:26:55;;;;;;;773.67;715.07;;;11.40;99.90;;;;;;4996862;28;20490;-81
2022/10/30 07:29:21;;;;;;;781.87;722.70;;;11.40;99.90;;;;;;4997096;28;20455;-82
2022/10/30 07:31:49;;;;;;;783.03;723.23;;;11.50;99.90;;;;;;4982566;28;20481;-83
2022/10/30 07:34:16;;;;;;;782.97;720.77;;;11.60;99.90;;;;;;4980542;28;20669;-83
2022/10/30 07:36:43;;;;;;;779.80;717.30;;;11.80;99.90;;;;;;4980906;28;20455;-82
2022/10/30 07:39:10;;;;;;;779.67;716.77;;;11.90;99.90;;;;;;4981065;28;20870;-82
2022/10/30 07:41:36;;;;;;;782.83;720.67;;;11.90;99.90;;;;;;4980207;28;20479;-83
2022/10/30 07:44:03;;;;;;;779.90;718.60;;;12.20;99.90;;;;;;4980363;28;20466;-83
2022/10/30 07:46:30;;;;;;;773.70;714.10;;;12.30;99.90;;;;;;4980200;28;20486;-82
2022/10/30 07:48:58;;;;;;;777.50;717.47;;;12.30;99.90;;;;;;4979968;28;20527;-83
2022/10/30 07:51:25;;;;;;;770.97;711.07;;;12.40;99.90;;;;;;4979623;28;20988;-82
2022/10/30 07:53:51;;;;;;;768.10;708.33;;;12.60;99.90;;;;;;4979465;28;20833;-83
2022/10/30 07:56:18;;;;;;;774.57;713.50;;;12.60;99.90;;;;;;4981110;28;20459;-82
2022/10/30 07:58:45;;;;;;;762.93;702.13;;;12.80;99.90;;;;;;4979841;28;20459;-83
2022/10/30 08:01:12;;;;;;;759.53;701.00;;;12.90;99.90;;;;;;4979308;28;20483;-83
2022/10/30 08:03:38;;;;;;;755.60;699.77;;;13.00;99.90;;;;;;4979910;28;20972;-82
2022/10/30 08:06:07;;;;;;;763.97;709.50;;;13.20;99.90;;;;;;4979711;28;20479;-82
2022/10/30 08:08:33;;;;;;;736.33;685.90;;;13.30;99.90;;;;;;4980509;28;20478;-83
2022/10/30 08:11:00;;;;;;;729.43;681.47;;;13.30;99.90;;;;;;4980963;28;20478;-84
2022/10/30 08:13:27;;;;;;;707.17;662.50;;;13.40;99.90;;;;;;4981548;28;20458;-82
2022/10/30 08:15:53;;;;;;;674.63;635.13;;;13.40;99.90;;;;;;4979928;28;20459;-83
2022/10/30 08:18:20;;;;;;;603.67;571.97;;;13.50;99.90;;;;;;4981096;28;20461;-83
2022/10/30 08:20:49;;;;;;;485.93;464.13;;;13.70;99.90;;;;;;4980898;28;20459;-83
2022/10/30 08:23:20;;;;;;;427.17;409.17;;;13.80;99.90;;;;;;4980533;28;20501;-83
2022/10/30 08:25:47;;;;;;;345.30;331.30;;;13.80;99.90;;;;;;4981350;28;20482;-82
2022/10/30 08:28:14;;;;;;;360.13;345.03;;;13.90;99.90;;;;;;4978558;28;20458;-83
2022/10/30 08:30:41;;;;;;;341.93;328.43;;;14.00;99.90;;;;;;4978992;28;20475;-82
2022/10/30 08:33:12;;;;;;;371.43;356.07;;;14.10;99.90;;;;;;4979883;28;20471;-83
2022/10/30 08:35:39;;;;;;;399.33;383.60;;;14.20;99.90;;;;;;4979998;28;20490;-83
2022/10/30 08:38:08;;;;;;;401.00;385.10;;;14.30;99.90;;;;;;4980998;28;20518;-82
2022/10/30 08:40:40;;;;;;;381.57;366.77;;;14.40;99.90;;;;;;4979601;28;20451;-81
2022/10/30 08:43:08;;;;;;;410.30;393.80;;;14.50;99.90;;;;;;4980311;28;20455;-82
2022/10/30 08:45:36;;;;;;;432.60;415.40;;;14.60;99.90;;;;;;4979178;28;20463;-83
2022/10/30 08:48:05;;;;;;;485.07;463.90;;;14.70;99.90;;;;;;4979058;28;20454;-82
2022/10/30 08:50:34;;;;;;;457.83;438.37;;;14.90;99.90;;;;;;4979742;28;20466;-83
2022/10/30 08:53:01;;;;;;;360.53;346.83;;;15.00;99.90;;;;;;4978928;28;21016;-83
2022/10/30 08:55:28;;;;;;;288.43;277.50;;;15.20;99.90;;;;;;4979498;28;20462;-83
2022/10/30 08:57:56;;;;;;;217.10;207.60;;;15.30;99.90;;;;;;4979634;28;20956;-83
2022/10/30 09:00:27;;;;;;;121.63;115.67;;;15.50;99.90;;;;;;4979649;28;20766;-83
2022/10/30 09:02:54;;;;;;;86.77;82.20;;;15.60;99.90;;;;;;4979627;28;20514;-83
2022/10/30 09:05:26;;;;;;;76.70;72.13;;;15.70;99.90;;;;;;4979135;28;20528;-83
2022/10/30 09:07:56;;;;;;;47.47;43.87;;;16.00;99.90;;;;;;4979829;28;20478;-83
2022/10/30 09:10:23;;;;;;;29.83;23.63;;;16.00;99.90;;;;;;4979245;28;20467;-83
2022/10/30 09:12:56;;;;;;;30.23;22.60;;;16.20;99.90;;;;;;4980652;28;20507;-83
2022/10/30 09:15:22;;;;;;;17.73;13.27;;;16.30;99.90;;;;;;4979201;28;20455;-83
2022/10/30 09:17:56;;;;;;;18.10;10.67;;;16.50;99.90;;;;;;4980343;28;20465;-82
2022/10/30 09:20:22;;;;;;;17.93;9.97;;;16.70;99.90;;;;;;4979664;28;20453;-82
2022/10/30 09:22:49;;;;;;;17.23;7.70;;;16.80;99.90;;;;;;4980215;28;20574;-83
2022/10/30 09:25:16;;;;;;;15.90;8.90;;;16.80;99.90;;;;;;4981343;28;20469;-83
2022/10/30 09:27:43;;;;;;;15.47;8.40;;;16.90;99.90;;;;;;4980151;28;21063;-81
2022/10/30 09:30:12;;;;;;;15.67;8.67;;;17.10;99.90;;;;;;4979436;28;20508;-81
2022/10/30 09:32:39;;;;;;;11.63;7.73;;;17.30;99.90;;;;;;4979823;28;20480;-83
2022/10/30 09:35:07;;;;;;;10.17;6.27;;;17.70;99.90;;;;;;4981772;28;20451;-83
2022/10/30 09:37:37;;;;;;;11.97;7.53;;;18.10;99.90;;;;;;4981930;28;20452;-83
2022/10/30 09:40:04;;;;;;;15.53;8.37;;;18.50;99.40;;;;;;4983441;28;20458;-83
2022/10/30 09:42:45;;;;;;;9.97;5.93;;;19.00;98.20;;;;;;4982684;28;20477;-84
2022/10/30 09:45:45;;;;;;;11.13;5.83;;;19.50;96.20;;;;;;4982981;28;20460;-83
2022/10/30 09:48:40;;;;;;;13.93;6.40;;;19.90;95.50;;;;;;4982953;28;20461;-83
2022/10/30 09:51:24;;;;;;;12.60;6.20;;;20.40;93.90;;;;;;4957462;28;20484;-83
2022/10/30 09:54:00;;;;;;;16.53;7.60;;;20.80;92.80;;;;;;4982507;28;20474;-83
2022/10/30 09:56:32;;;;;;;12.73;5.80;;;21.30;91.80;;;;;;4984761;28;20832;-84
2022/10/30 09:59:08;;;;;;;15.47;6.83;;;21.40;90.80;;;;;;4986496;28;20959;-84
2022/10/30 10:01:45;;;;;;;17.83;7.03;;;21.60;90.60;;;;;;4986631;28;20868;-84
2022/10/30 10:04:23;;;;;;;12.50;6.93;;;21.60;89.20;;;;;;4986091;28;20989;-83
2022/10/30 10:06:55;;;;;;;13.50;6.30;;;21.60;88.40;;;;;;4985048;28;20480;-83
2022/10/30 10:09:24;;;;;;;21.13;8.10;;;21.80;87.70;;;;;;4983655;28;20450;-83
2022/10/30 10:11:55;;;;;;;12.43;6.00;;;22.20;88.10;;;;;;4985256;28;20482;-83
2022/10/30 10:14:26;;;;;;;17.00;6.20;;;22.30;88.20;;;;;;4986041;28;20455;-83
2022/10/30 10:16:54;;;;;;;11.03;6.20;;;22.60;86.00;;;;;;4984429;28;20956;-84
2022/10/30 10:19:28;;;;;;;12.30;6.40;;;22.80;83.90;;;;;;4990532;28;20454;-82
2022/10/30 10:21:58;;;;;;;11.47;5.67;;;23.30;83.20;;;;;;4992425;28;20509;-83
2022/10/30 10:24:27;;;;;;;11.50;6.27;;;23.50;81.40;;;;;;4990719;28;20459;-82
2022/10/30 10:27:00;;;;;;;15.50;7.53;;;23.50;80.20;;;;;;4989702;28;20466;-83
2022/10/30 10:29:34;;;;;;;15.20;6.10;;;23.50;77.70;;;;;;4993322;28;20458;-83
2022/10/30 10:32:31;;;;;;;20.00;6.17;;;23.60;77.90;;;;;;4981451;28;21009;-84
2022/10/30 10:35:20;;;;;;;11.53;6.00;;;23.50;76.40;;;;;;4982787;28;20458;-83
2022/10/30 10:37:54;;;;;;;15.50;6.73;;;23.50;76.50;;;;;;4994774;28;20518;-84
2022/10/30 10:40:32;;;;;;;15.20;6.70;;;23.50;74.70;;;;;;4995294;28;20482;-84
2022/10/30 10:43:11;;;;;;;12.43;6.53;;;23.50;76.60;;;;;;4994906;28;20473;-84
2022/10/30 10:45:46;;;;;;;15.10;6.03;;;24.00;74.60;;;;;;4993225;28;20450;-84
2022/10/30 10:48:45;;;;;;;18.10;6.73;;;24.30;72.80;;;;;;4991904;28;20438;-85
2022/10/30 10:51:17;;;;;;;18.33;5.67;;;24.40;70.20;;;;;;4986846;28;20860;-85
2022/10/30 10:53:46;;;;;;;17.13;6.20;;;24.30;71.30;;;;;;4986201;28;20995;-85
2022/10/30 10:56:13;;;;;;;10.70;6.10;;;24.50;68.20;;;;;;4985038;28;20450;-86
2022/10/30 10:58:48;;;;;;;17.30;7.30;;;24.50;67.80;;;;;;4985341;28;20459;-85
2022/10/30 11:01:18;;;;;;;14.63;6.03;;;24.50;68.90;;;;;;4984518;28;20488;-86
2022/10/30 11:03:54;;;;;;;14.00;5.90;;;24.50;67.40;;;;;;4984221;28;20455;-85
2022/10/30 11:06:26;;;;;;;10.27;5.17;;;24.90;67.90;;;;;;4984234;28;20446;-85
2022/10/30 11:09:01;;;;;;;12.57;5.80;;;24.30;67.80;;;;;;4982675;28;20546;-86
2022/10/30 11:11:28;;;;;;;14.43;7.33;;;24.40;66.20;;;;;;4983519;28;20481;-86
2022/10/30 11:13:55;;;;;;;18.03;6.47;;;24.40;65.80;;;;;;4983253;28;20458;-86
2022/10/30 11:16:29;;;;;;;14.13;6.23;;;24.00;68.30;;;;;;4982793;28;20455;-85
2022/10/30 11:18:59;;;;;;;13.57;7.17;;;23.90;67.90;;;;;;4983284;28;20831;-86
2022/10/30 11:21:30;;;;;;;12.80;5.60;;;23.70;66.10;;;;;;4983755;28;20850;-86
2022/10/30 11:23:57;;;;;;;11.27;5.23;;;23.50;67.70;;;;;;4983923;28;20466;-85
2022/10/30 11:26:34;;;;;;;9.57;6.00;;;23.80;68.30;;;;;;4983346;28;20451;-85
2022/10/30 11:29:13;;;;;;;13.23;6.20;;;24.30;65.90;;;;;;4984459;28;20478;-86
2022/10/30 11:31:41;;;;;;;15.87;6.07;;;24.50;64.80;;;;;;4983716;28;20477;-85
2022/10/30 11:34:28;;;;;;;16.20;6.63;;;24.20;65.70;;;;;;4983598;28;20451;-85
2022/10/30 11:36:56;;;;;;;11.80;5.70;;;24.40;65.90;;;;;;4983879;28;20482;-85
2022/10/30 11:39:24;;;;;;;19.30;6.97;;;24.80;66.20;;;;;;4983187;28;20459;-85
2022/10/30 11:42:00;;;;;;;11.70;5.77;;;24.90;63.90;;;;;;4982863;28;20828;-86
2022/10/30 11:44:31;;;;;;;18.50;6.40;;;25.10;64.70;;;;;;4983378;28;20465;-85
2022/10/30 11:46:58;;;;;;;12.03;6.10;;;24.80;63.30;;;;;;4983440;28;20461;-85
2022/10/30 11:49:40;;;;;;;11.70;6.23;;;25.10;63.70;;;;;;4983088;28;20454;-86
2022/10/30 11:52:15;;;;;;;10.53;5.63;;;25.00;60.50;;;;;;4982852;28;20479;-86
2022/10/30 11:54:47;;;;;;;17.10;6.10;;;25.10;60.10;;;;;;4982866;28;20464;-85
2022/10/30 11:57:24;;;;;;;13.13;5.63;;;24.70;59.60;;;;;;4982580;28;20510;-85
2022/10/30 11:59:58;;;;;;;16.30;6.13;;;24.50;61.60;;;;;;4981863;28;20462;-86
2022/10/30 12:02:27;;;;;;;14.53;7.27;;;24.60;64.20;;;;;;4982572;28;20917;-85
2022/10/30 12:04:54;;;;;;;18.97;6.60;;;24.80;62.20;;;;;;4983890;28;20459;-86
2022/10/30 12:07:29;;;;;;;15.73;4.73;;;24.70;61.80;;;;;;4984436;28;20455;-86
2022/10/30 12:09:58;;;;;;;18.20;6.07;;;25.10;61.50;;;;;;4981333;28;20458;-86
2022/10/30 12:12:28;;;;;;;11.90;5.70;;;25.30;60.80;;;;;;4983665;28;20478;-86
2022/10/30 12:14:55;;;;;;;10.73;5.67;;;25.10;61.40;;;;;;4983475;28;20495;-86
2022/10/30 12:17:26;;;;;;;13.60;5.80;;;25.10;61.60;;;;;;4983855;28;20490;-87
2022/10/30 12:19:57;;;;;;;13.67;5.90;;;24.90;61.10;;;;;;4981253;28;20956;-85
2022/10/30 12:22:30;;;;;;;17.60;6.27;;;24.90;60.60;;;;;;4981090;28;20486;-87
2022/10/30 12:24:59;;;;;;;14.60;5.30;;;25.10;60.90;;;;;;4980948;28;20498;-87
2022/10/30 12:27:31;;;;;;;12.00;5.30;;;25.00;59.00;;;;;;4977888;28;20458;-86